Time;durP1;ratioP1;P1;durP2;ratioP2;P2;SDS_P1;SDS_P2;PMS_P1;PMS_P2;Temp;Humidity;BMP_temperature;BMP_pressure;BME280_temperature;BME280_humidity;BME280_pressure;Samples;Min_cycle;Max_cycle;Signal;HPM_P1;HPM_P2
2024/01/23 00:01:43;;;;;;;1.27;0.80;;;5.90;99.90;;;;;;5039489;28;20220;-79
2024/01/23 00:04:11;;;;;;;1.55;1.20;;;5.90;99.90;;;;;;5036424;28;20727;-78
2024/01/23 00:06:38;;;;;;;2.45;1.00;;;5.90;99.90;;;;;;5040281;28;20588;-78
2024/01/23 00:09:05;;;;;;;1.60;1.02;;;5.90;99.90;;;;;;5037304;28;20740;-79
2024/01/23 00:11:32;;;;;;;3.08;2.78;;;5.90;99.90;;;;;;5040308;28;20687;-79
2024/01/23 00:13:59;;;;;;;0.80;0.70;;;5.90;99.90;;;;;;5038006;28;20213;-79
2024/01/23 00:16:28;;;;;;;1.35;0.95;;;6.00;99.90;;;;;;5040538;28;20741;-79
2024/01/23 00:18:54;;;;;;;2.15;1.23;;;5.90;99.90;;;;;;5039511;28;20225;-79
2024/01/23 00:21:21;;;;;;;1.67;1.58;;;6.00;99.90;;;;;;5041454;28;20230;-79
2024/01/23 00:23:48;;;;;;;2.22;0.80;;;6.00;99.90;;;;;;5039578;28;20227;-79
2024/01/23 00:26:14;;;;;;;2.50;1.00;;;5.90;99.90;;;;;;5040425;28;20244;-79
2024/01/23 00:28:41;;;;;;;3.70;1.15;;;6.00;99.90;;;;;;5041177;28;20206;-79
2024/01/23 00:31:08;;;;;;;0.80;0.75;;;6.00;99.90;;;;;;5039951;28;20210;-79
2024/01/23 00:33:36;;;;;;;0.95;0.75;;;6.00;99.90;;;;;;5039149;28;20229;-79
2024/01/23 00:36:03;;;;;;;5.20;1.17;;;5.90;99.90;;;;;;5043685;28;20206;-79
2024/01/23 00:38:30;;;;;;;2.95;1.42;;;5.80;99.90;;;;;;5042023;28;20244;-79
2024/01/23 00:40:57;;;;;;;1.42;1.10;;;5.80;99.90;;;;;;5051241;28;20205;-79
2024/01/23 00:43:24;;;;;;;1.95;1.05;;;5.70;99.90;;;;;;5049024;28;20222;-79
2024/01/23 00:45:51;;;;;;;0.85;0.80;;;5.70;99.90;;;;;;5039991;28;20205;-79
2024/01/23 00:48:17;;;;;;;2.60;1.38;;;5.60;99.90;;;;;;5040164;28;20213;-79
2024/01/23 00:50:46;;;;;;;1.20;1.10;;;5.60;99.90;;;;;;5041383;28;20208;-79
2024/01/23 00:53:12;;;;;;;1.13;0.88;;;5.60;99.90;;;;;;5039834;28;20248;-79
2024/01/23 00:55:39;;;;;;;1.08;0.93;;;5.60;99.90;;;;;;5041814;28;20210;-79
2024/01/23 00:58:06;;;;;;;2.65;1.13;;;5.60;99.90;;;;;;5039471;28;20573;-79
2024/01/23 01:00:32;;;;;;;0.80;0.70;;;5.60;99.90;;;;;;5045553;28;20216;-79
2024/01/23 01:02:59;;;;;;;1.20;0.90;;;5.60;99.90;;;;;;5045054;28;20228;-78
2024/01/23 01:05:26;;;;;;;2.22;1.27;;;5.60;99.90;;;;;;5053187;28;20663;-78
2024/01/23 01:07:54;;;;;;;0.98;0.80;;;5.60;99.90;;;;;;5052381;28;20292;-78
2024/01/23 01:10:22;;;;;;;2.47;1.15;;;5.60;99.90;;;;;;5057178;28;20214;-79
2024/01/23 01:12:49;;;;;;;1.55;1.05;;;5.60;99.90;;;;;;5058606;28;20244;-78
2024/01/23 01:15:16;;;;;;;2.05;1.13;;;5.60;99.90;;;;;;5057492;28;20305;-78
2024/01/23 01:17:42;;;;;;;3.20;1.15;;;5.70;99.90;;;;;;5057811;28;20217;-79
2024/01/23 01:20:10;;;;;;;3.97;1.70;;;5.70;99.90;;;;;;5045062;28;20718;-79
2024/01/23 01:22:39;;;;;;;1.73;1.17;;;5.70;99.90;;;;;;5043655;28;20230;-79
2024/01/23 01:25:08;;;;;;;1.70;1.05;;;5.60;99.90;;;;;;5044468;28;20225;-79
2024/01/23 01:27:35;;;;;;;4.30;1.75;;;5.60;99.90;;;;;;5044061;28;20292;-80
2024/01/23 01:30:03;;;;;;;1.88;1.02;;;5.60;99.90;;;;;;5057377;28;20670;-79
2024/01/23 01:32:29;;;;;;;1.35;0.90;;;5.50;99.90;;;;;;5043589;28;20237;-79
2024/01/23 01:34:56;;;;;;;1.55;0.93;;;5.50;99.90;;;;;;5042931;28;20205;-79
2024/01/23 01:37:24;;;;;;;1.10;0.70;;;5.50;99.90;;;;;;5043884;28;21163;-79
2024/01/23 01:39:51;;;;;;;1.10;1.00;;;5.50;99.90;;;;;;5045263;28;20239;-79
2024/01/23 01:42:19;;;;;;;0.80;0.80;;;5.40;99.90;;;;;;5044349;28;20225;-79
2024/01/23 01:44:46;;;;;;;1.20;0.77;;;5.40;99.90;;;;;;5045907;28;20580;-79
2024/01/23 01:47:12;;;;;;;1.15;0.90;;;5.30;99.90;;;;;;5043991;28;20702;-79
2024/01/23 01:49:39;;;;;;;3.55;1.27;;;5.30;99.90;;;;;;5047283;28;20304;-79
2024/01/23 01:52:06;;;;;;;1.15;0.95;;;5.20;99.90;;;;;;5044788;28;20229;-79
2024/01/23 01:54:33;;;;;;;0.80;0.80;;;5.20;99.90;;;;;;5047236;28;20217;-79
2024/01/23 01:57:00;;;;;;;0.90;0.77;;;5.20;99.90;;;;;;5045513;28;20484;-79
2024/01/23 01:59:28;;;;;;;0.80;0.80;;;5.20;99.90;;;;;;5046805;28;20228;-79
2024/01/23 02:01:56;;;;;;;5.90;1.40;;;5.10;99.90;;;;;;5048059;28;20221;-79
2024/01/23 02:04:23;;;;;;;2.17;0.98;;;5.10;99.90;;;;;;5047177;28;20198;-79
2024/01/23 02:06:50;;;;;;;1.30;0.80;;;5.10;99.90;;;;;;5058955;28;20196;-79
2024/01/23 02:09:16;;;;;;;0.80;0.70;;;5.00;99.90;;;;;;5053324;28;20220;-79
2024/01/23 02:12:01;;;;;;;2.85;1.17;;;5.00;99.90;;;;;;5047312;28;20545;-79
2024/01/23 02:14:29;;;;;;;1.92;1.38;;;5.00;99.90;;;;;;5047085;28;20252;-79
2024/01/23 02:16:56;;;;;;;0.70;0.70;;;5.00;99.90;;;;;;5046025;28;20197;-79
2024/01/23 02:19:23;;;;;;;2.28;1.45;;;4.90;99.90;;;;;;5045834;28;20259;-79
2024/01/23 02:21:50;;;;;;;2.50;1.60;;;4.90;99.90;;;;;;5046410;28;20223;-79
2024/01/23 02:24:18;;;;;;;2.45;1.13;;;4.90;99.90;;;;;;5045807;28;20206;-79
2024/01/23 02:26:44;;;;;;;0.93;0.82;;;4.90;99.90;;;;;;5048822;28;20237;-79
2024/01/23 02:29:11;;;;;;;5.30;0.90;;;4.90;99.90;;;;;;5045100;28;20213;-79
2024/01/23 02:31:38;;;;;;;1.20;0.93;;;4.90;99.90;;;;;;5047905;28;20212;-79
2024/01/23 02:34:05;;;;;;;1.45;1.08;;;4.90;99.90;;;;;;5044976;28;20237;-79
2024/01/23 02:36:34;;;;;;;1.10;1.00;;;4.90;99.90;;;;;;5048143;28;20210;-79
2024/01/23 02:39:02;;;;;;;0.80;0.70;;;4.90;99.90;;;;;;5046078;28;20233;-79
2024/01/23 02:41:30;;;;;;;1.25;1.15;;;4.90;99.90;;;;;;5048170;28;20214;-79
2024/01/23 02:43:56;;;;;;;2.30;1.23;;;4.90;99.90;;;;;;5046538;28;20201;-79
2024/01/23 02:46:23;;;;;;;2.85;1.15;;;4.80;99.90;;;;;;5046639;28;20651;-79
2024/01/23 02:48:50;;;;;;;0.80;0.80;;;4.70;99.90;;;;;;5047958;28;20202;-79
2024/01/23 02:51:19;;;;;;;1.98;1.02;;;4.80;99.90;;;;;;5046118;28;20217;-79
2024/01/23 02:53:45;;;;;;;4.75;1.15;;;4.70;99.90;;;;;;5048323;28;20243;-79
2024/01/23 02:56:12;;;;;;;2.88;1.25;;;4.60;99.90;;;;;;5045484;28;20671;-79
2024/01/23 02:58:42;;;;;;;0.93;0.80;;;4.70;99.90;;;;;;5048894;28;20213;-79
2024/01/23 03:01:09;;;;;;;1.98;1.65;;;4.70;99.90;;;;;;5045867;28;20232;-79
2024/01/23 03:03:35;;;;;;;2.25;1.48;;;4.70;99.90;;;;;;5044361;28;20228;-78
2024/01/23 03:06:02;;;;;;;2.45;1.52;;;4.70;99.90;;;;;;5046977;28;20666;-79
2024/01/23 03:08:29;;;;;;;11.43;1.85;;;4.70;99.90;;;;;;5047268;28;20202;-79
2024/01/23 03:10:56;;;;;;;1.35;1.15;;;4.60;99.90;;;;;;5047733;28;20209;-79
2024/01/23 03:13:22;;;;;;;2.58;1.27;;;4.70;99.90;;;;;;5044347;28;20243;-79
2024/01/23 03:15:52;;;;;;;3.13;1.35;;;4.70;99.90;;;;;;5046250;28;20201;-79
2024/01/23 03:18:19;;;;;;;1.27;1.05;;;4.70;99.90;;;;;;5044360;28;20647;-79
2024/01/23 03:20:47;;;;;;;3.55;0.95;;;4.60;99.90;;;;;;5046916;28;20296;-79
2024/01/23 03:23:14;;;;;;;3.25;1.50;;;4.60;99.90;;;;;;5044461;28;20377;-79
2024/01/23 03:25:40;;;;;;;2.38;0.90;;;4.60;99.90;;;;;;5047098;28;20202;-79
2024/01/23 03:28:07;;;;;;;1.45;1.20;;;4.60;99.90;;;;;;5044535;28;20216;-79
2024/01/23 03:30:34;;;;;;;3.08;1.30;;;4.60;99.90;;;;;;5047514;28;20224;-79
2024/01/23 03:33:02;;;;;;;5.15;1.20;;;4.70;99.90;;;;;;5045981;28;20252;-79
2024/01/23 03:35:29;;;;;;;4.00;1.50;;;4.70;99.90;;;;;;5046678;28;20671;-79
2024/01/23 03:37:56;;;;;;;1.40;1.15;;;4.70;99.90;;;;;;5047223;28;20212;-79
2024/01/23 03:40:22;;;;;;;11.70;1.90;;;4.80;99.90;;;;;;5046588;28;20202;-79
2024/01/23 03:42:49;;;;;;;1.98;0.93;;;4.80;99.90;;;;;;5048280;28;20229;-79
2024/01/23 03:45:16;;;;;;;1.95;0.93;;;4.80;99.90;;;;;;5045276;28;20209;-79
2024/01/23 03:47:43;;;;;;;2.85;1.63;;;4.80;99.90;;;;;;5049166;28;20212;-79
2024/01/23 03:50:11;;;;;;;1.30;1.02;;;4.80;99.90;;;;;;5046448;28;20295;-80
2024/01/23 03:52:38;;;;;;;1.63;1.52;;;4.90;99.90;;;;;;5044831;28;20231;-80
2024/01/23 03:55:05;;;;;;;2.30;1.10;;;4.90;99.90;;;;;;5047166;28;20213;-80
2024/01/23 03:57:32;;;;;;;4.53;1.48;;;4.90;99.90;;;;;;5052414;28;20474;-80
2024/01/23 03:59:59;;;;;;;3.25;1.40;;;4.90;99.90;;;;;;5049848;28;20249;-78
2024/01/23 04:02:26;;;;;;;3.65;1.65;;;5.00;99.90;;;;;;5050676;28;20225;-80
2024/01/23 04:04:52;;;;;;;6.97;1.15;;;5.00;99.90;;;;;;5051444;28;20493;-81
2024/01/23 04:07:21;;;;;;;7.45;1.65;;;5.00;99.90;;;;;;5052897;28;20277;-79
2024/01/23 04:09:47;;;;;;;4.07;1.95;;;5.00;99.90;;;;;;5048121;28;20197;-79
2024/01/23 04:12:14;;;;;;;2.78;1.40;;;5.00;99.90;;;;;;5047278;28;20225;-79
2024/01/23 04:14:41;;;;;;;2.35;1.63;;;5.00;99.90;;;;;;5047460;28;20280;-79
2024/01/23 04:17:08;;;;;;;3.25;1.33;;;5.00;99.90;;;;;;5046070;28;20227;-79
2024/01/23 04:19:36;;;;;;;7.43;1.92;;;5.10;99.90;;;;;;5049493;28;20227;-79
2024/01/23 04:22:03;;;;;;;6.15;1.23;;;5.20;99.90;;;;;;5046669;28;20225;-79
2024/01/23 04:24:31;;;;;;;7.93;1.90;;;5.30;99.90;;;;;;5054469;28;20201;-79
2024/01/23 04:26:58;;;;;;;1.38;1.27;;;5.30;99.90;;;;;;5048423;28;20212;-79
2024/01/23 04:29:25;;;;;;;2.35;2.10;;;5.30;99.90;;;;;;5050956;28;20201;-78
2024/01/23 04:31:51;;;;;;;3.00;1.45;;;5.40;99.90;;;;;;5049366;28;20233;-78
2024/01/23 04:34:18;;;;;;;3.97;1.27;;;5.40;99.90;;;;;;5049708;28;20221;-78
2024/01/23 04:36:45;;;;;;;2.92;1.33;;;5.50;99.90;;;;;;5048765;28;20570;-79
2024/01/23 04:39:12;;;;;;;2.25;1.23;;;5.40;99.90;;;;;;5050154;28;20229;-78
2024/01/23 04:41:40;;;;;;;1.60;1.50;;;5.40;99.90;;;;;;5053113;28;20331;-79
2024/01/23 04:44:06;;;;;;;4.05;1.95;;;5.40;99.90;;;;;;5043475;28;20216;-76
2024/01/23 04:46:33;;;;;;;8.25;1.80;;;5.40;99.90;;;;;;5043905;28;20275;-76
2024/01/23 04:49:00;;;;;;;4.38;1.58;;;5.40;99.90;;;;;;5048511;28;20204;-76
2024/01/23 04:51:27;;;;;;;2.70;1.55;;;5.40;99.90;;;;;;5044277;28;20205;-76
2024/01/23 04:53:54;;;;;;;8.23;1.35;;;5.40;99.90;;;;;;5046854;28;20201;-76
2024/01/23 04:56:21;;;;;;;4.60;1.40;;;5.30;99.90;;;;;;5045055;28;20217;-76
2024/01/23 04:58:49;;;;;;;1.35;0.90;;;5.30;99.90;;;;;;5047468;28;20228;-76
2024/01/23 05:01:17;;;;;;;5.68;1.63;;;5.30;99.90;;;;;;5045613;28;20577;-75
2024/01/23 05:03:44;;;;;;;2.72;1.15;;;5.30;99.90;;;;;;5048046;28;20271;-75
2024/01/23 05:06:11;;;;;;;2.33;1.20;;;5.20;99.90;;;;;;5044480;28;20201;-76
2024/01/23 05:08:37;;;;;;;3.83;1.10;;;5.20;99.90;;;;;;5058069;28;20212;-76
2024/01/23 05:11:04;;;;;;;1.10;0.80;;;5.20;99.90;;;;;;5049648;28;20212;-76
2024/01/23 05:13:31;;;;;;;2.05;1.55;;;5.10;99.90;;;;;;5048611;28;20221;-76
2024/01/23 05:15:59;;;;;;;3.70;1.70;;;5.10;99.90;;;;;;5049773;28;20212;-76
2024/01/23 05:18:26;;;;;;;5.13;1.13;;;5.10;99.90;;;;;;5050162;28;20202;-77
2024/01/23 05:20:52;;;;;;;2.35;1.38;;;5.00;99.90;;;;;;5049557;28;20577;-76
2024/01/23 05:23:20;;;;;;;3.55;1.52;;;5.00;99.90;;;;;;5047573;28;20229;-77
2024/01/23 05:25:47;;;;;;;5.07;2.05;;;5.00;99.90;;;;;;5049058;28;20204;-74
2024/01/23 05:28:14;;;;;;;1.40;0.90;;;5.00;99.90;;;;;;5047409;28;20305;-76
2024/01/23 05:30:40;;;;;;;1.45;1.20;;;5.00;99.90;;;;;;5049532;28;20599;-76
2024/01/23 05:33:08;;;;;;;2.08;1.08;;;5.00;99.90;;;;;;5046450;28;20229;-75
2024/01/23 05:35:35;;;;;;;4.53;0.95;;;5.00;99.90;;;;;;5042746;28;20748;-77
2024/01/23 05:38:02;;;;;;;0.80;0.80;;;5.10;99.90;;;;;;5049761;28;20217;-76
2024/01/23 05:40:28;;;;;;;3.40;1.33;;;5.10;99.90;;;;;;5051518;28;20220;-78
2024/01/23 05:42:55;;;;;;;3.50;1.20;;;5.10;99.90;;;;;;5051325;28;20627;-77
2024/01/23 05:45:22;;;;;;;1.65;1.00;;;5.10;99.90;;;;;;5051704;28;20206;-78
2024/01/23 05:47:49;;;;;;;1.55;1.27;;;5.00;99.90;;;;;;5051639;28;20205;-80
2024/01/23 05:50:17;;;;;;;1.00;0.80;;;5.00;99.90;;;;;;5052102;28;20227;-79
2024/01/23 05:52:44;;;;;;;1.00;0.82;;;4.90;99.90;;;;;;5064668;22;20741;-79
2024/01/23 05:55:11;;;;;;;1.33;1.23;;;4.90;99.90;;;;;;5070917;28;20208;-78
2024/01/23 05:57:37;;;;;;;1.10;0.80;;;4.80;99.90;;;;;;5079216;28;20209;-79
2024/01/23 06:00:06;;;;;;;2.75;0.80;;;4.80;99.90;;;;;;5062442;28;20228;-78
2024/01/23 06:02:32;;;;;;;3.30;1.85;;;4.80;99.90;;;;;;5070112;28;20229;-77
2024/01/23 06:04:59;;;;;;;0.80;0.80;;;4.70;99.90;;;;;;5054960;28;20231;-77
2024/01/23 06:07:27;;;;;;;0.85;0.70;;;4.60;99.90;;;;;;5054893;28;20217;-81
2024/01/23 06:09:55;;;;;;;0.70;0.60;;;4.60;99.90;;;;;;5057759;28;20686;-80
2024/01/23 06:12:22;;;;;;;0.80;0.70;;;4.60;99.90;;;;;;5057305;28;20236;-79
2024/01/23 06:14:48;;;;;;;0.80;0.73;;;4.60;99.90;;;;;;5057967;28;20201;-80
2024/01/23 06:17:15;;;;;;;1.27;0.75;;;4.60;99.90;;;;;;5056231;28;20211;-80
2024/01/23 06:19:42;;;;;;;0.70;0.70;;;4.50;99.90;;;;;;5056720;28;20225;-82
2024/01/23 06:22:09;;;;;;;0.80;0.70;;;4.50;99.90;;;;;;5054972;28;20255;-81
2024/01/23 06:24:37;;;;;;;3.17;1.00;;;4.50;99.90;;;;;;5047674;28;20478;-78
2024/01/23 06:27:04;;;;;;;1.50;0.80;;;4.40;99.90;;;;;;5056609;28;20208;-83
2024/01/23 06:29:31;;;;;;;1.15;0.80;;;4.40;99.90;;;;;;5053883;28;20572;-79
2024/01/23 06:31:58;;;;;;;1.20;0.77;;;4.30;99.90;;;;;;5054087;28;20221;-79
2024/01/23 06:34:26;;;;;;;0.70;0.60;;;4.20;99.90;;;;;;5052779;28;20214;-78
2024/01/23 06:36:53;;;;;;;0.70;0.60;;;4.10;99.90;;;;;;5054199;28;20205;-77
2024/01/23 06:39:20;;;;;;;1.05;0.95;;;4.10;99.90;;;;;;5053187;28;20681;-77
2024/01/23 06:41:50;;;;;;;0.70;0.60;;;4.00;99.90;;;;;;5054213;28;20221;-80
2024/01/23 06:44:16;;;;;;;0.70;0.60;;;4.00;99.90;;;;;;5053931;28;20216;-81
2024/01/23 06:46:43;;;;;;;1.00;0.90;;;4.00;99.90;;;;;;5056603;28;20201;-78
2024/01/23 06:49:10;;;;;;;0.70;0.60;;;4.00;99.90;;;;;;5052968;28;20213;-78
2024/01/23 06:51:37;;;;;;;1.40;0.80;;;4.00;99.90;;;;;;5045847;28;20596;-77
2024/01/23 06:54:07;;;;;;;0.88;0.80;;;3.90;99.90;;;;;;5055235;28;20209;-82
2024/01/23 06:56:34;;;;;;;0.70;0.60;;;3.90;99.90;;;;;;5077680;28;20231;-82
2024/01/23 06:59:04;;;;;;;0.70;0.60;;;3.90;99.90;;;;;;5061516;28;20202;-81
2024/01/23 07:01:31;;;;;;;0.70;0.60;;;3.90;99.90;;;;;;5055316;28;20209;-80
2024/01/23 07:03:58;;;;;;;1.10;0.90;;;3.80;99.90;;;;;;5055940;28;20201;-78
2024/01/23 07:06:25;;;;;;;1.75;1.25;;;3.80;99.90;;;;;;5055879;28;20212;-82
2024/01/23 07:08:52;;;;;;;1.88;0.70;;;3.70;99.90;;;;;;5057005;28;20557;-79
2024/01/23 07:11:20;;;;;;;0.70;0.60;;;3.70;99.90;;;;;;5057104;28;20206;-79
2024/01/23 07:13:47;;;;;;;0.80;0.70;;;3.60;99.90;;;;;;5056885;28;20298;-79
2024/01/23 07:16:15;;;;;;;2.10;1.00;;;3.60;99.90;;;;;;5056559;28;20201;-79
2024/01/23 07:18:42;;;;;;;1.45;0.77;;;3.50;99.90;;;;;;5057220;28;20251;-80
2024/01/23 07:21:09;;;;;;;0.70;0.60;;;3.50;99.90;;;;;;5057803;28;20229;-82
2024/01/23 07:23:36;;;;;;;2.88;1.30;;;3.50;99.90;;;;;;5045367;28;20235;-80
2024/01/23 07:26:04;;;;;;;0.95;0.85;;;3.40;99.90;;;;;;5038165;28;20210;-83
2024/01/23 07:28:30;;;;;;;2.85;1.20;;;3.40;99.90;;;;;;5042328;28;20213;-84
2024/01/23 07:30:57;;;;;;;1.10;0.80;;;3.40;99.90;;;;;;5055974;28;20202;-80
2024/01/23 07:33:27;;;;;;;3.67;0.88;;;3.40;99.90;;;;;;5048486;28;20288;-86
2024/01/23 07:35:54;;;;;;;0.80;0.70;;;3.40;99.90;;;;;;5052236;28;20284;-86
2024/01/23 07:38:21;;;;;;;1.10;0.88;;;3.40;99.90;;;;;;5038939;28;20207;-79
2024/01/23 07:40:48;;;;;;;1.58;1.05;;;3.30;99.90;;;;;;5035367;28;20218;-79
2024/01/23 07:43:17;;;;;;;1.17;0.82;;;3.30;99.90;;;;;;5040074;28;20230;-79
2024/01/23 07:45:44;;;;;;;1.17;0.82;;;3.30;99.90;;;;;;5035431;28;20210;-78
2024/01/23 07:48:11;;;;;;;2.30;0.95;;;3.30;99.90;;;;;;5052143;28;20208;-79
2024/01/23 07:50:39;;;;;;;0.90;0.80;;;3.30;99.90;;;;;;5048131;28;20209;-79
2024/01/23 07:53:05;;;;;;;0.80;0.80;;;3.30;99.90;;;;;;5055505;28;20238;-80
2024/01/23 07:55:32;;;;;;;1.15;0.90;;;3.40;99.90;;;;;;5040071;28;20224;-79
2024/01/23 07:57:59;;;;;;;1.30;0.82;;;3.40;99.90;;;;;;5049894;28;20211;-79
2024/01/23 08:00:26;;;;;;;1.52;0.85;;;3.50;99.90;;;;;;5047085;28;20228;-79
2024/01/23 08:02:52;;;;;;;1.83;1.00;;;3.50;99.90;;;;;;5055173;28;20225;-80
2024/01/23 08:05:19;;;;;;;0.80;0.70;;;3.60;99.90;;;;;;5051001;28;20229;-83
2024/01/23 08:07:48;;;;;;;1.20;1.10;;;3.70;99.90;;;;;;5051227;28;20216;-83
2024/01/23 08:10:15;;;;;;;1.23;0.98;;;3.80;99.90;;;;;;5049409;28;20202;-81
2024/01/23 08:12:42;;;;;;;0.70;0.68;;;3.80;99.90;;;;;;5050468;28;20244;-80
2024/01/23 08:15:09;;;;;;;2.60;1.20;;;3.90;99.90;;;;;;5053046;28;20212;-79
2024/01/23 08:17:35;;;;;;;0.85;0.85;;;3.90;99.90;;;;;;5044668;28;20205;-82
2024/01/23 08:20:03;;;;;;;2.45;1.00;;;4.00;99.90;;;;;;5047593;28;20225;-83
2024/01/23 08:22:30;;;;;;;1.20;0.90;;;4.00;99.90;;;;;;5037311;28;20249;-82
2024/01/23 08:24:58;;;;;;;2.58;1.30;;;4.40;99.90;;;;;;5040988;28;20204;-82
2024/01/23 08:27:25;;;;;;;0.88;0.82;;;4.90;99.90;;;;;;5034968;28;20209;-86
2024/01/23 08:29:51;;;;;;;1.05;0.82;;;5.40;99.90;;;;;;5033672;28;20202;-78
2024/01/23 08:32:18;;;;;;;0.85;0.80;;;5.60;99.90;;;;;;5033645;28;20226;-79
2024/01/23 08:34:45;;;;;;;0.80;0.80;;;5.90;99.90;;;;;;5034209;28;20287;-79
2024/01/23 08:37:14;;;;;;;4.20;1.42;;;6.30;99.90;;;;;;5035802;28;20209;-79
2024/01/23 08:39:42;;;;;;;1.92;0.80;;;6.30;99.90;;;;;;5034668;28;20241;-82
2024/01/23 08:42:10;;;;;;;2.67;1.00;;;6.20;99.90;;;;;;5044673;28;20275;-81
2024/01/23 08:44:37;;;;;;;2.50;0.95;;;5.90;99.90;;;;;;5042075;28;20577;-82
2024/01/23 08:47:04;;;;;;;0.88;0.88;;;5.60;99.90;;;;;;5043839;28;20214;-82
2024/01/23 08:49:30;;;;;;;3.45;1.20;;;5.40;99.90;;;;;;5041881;28;20329;-80
2024/01/23 08:51:57;;;;;;;3.20;1.20;;;5.30;99.90;;;;;;5045642;28;20225;-81
2024/01/23 08:54:24;;;;;;;4.82;1.42;;;5.80;99.90;;;;;;5053782;28;20224;-83
2024/01/23 08:56:50;;;;;;;1.45;1.08;;;6.30;99.90;;;;;;5045155;28;20202;-80
2024/01/23 08:59:18;;;;;;;4.03;1.10;;;6.50;99.90;;;;;;5043972;28;20392;-81
2024/01/23 09:01:45;;;;;;;1.55;1.35;;;6.50;99.90;;;;;;5050503;28;20228;-82
2024/01/23 09:04:12;;;;;;;1.92;1.00;;;6.40;99.90;;;;;;5043389;28;20214;-82
2024/01/23 09:06:39;;;;;;;4.00;1.40;;;6.40;99.90;;;;;;5039940;28;20206;-81
2024/01/23 09:09:06;;;;;;;1.77;1.23;;;6.60;99.90;;;;;;5049557;28;20205;-82
2024/01/23 09:11:33;;;;;;;1.65;1.10;;;6.50;99.90;;;;;;5051256;28;20196;-84
2024/01/23 09:14:00;;;;;;;1.20;1.08;;;6.30;99.90;;;;;;5060159;28;20223;-85
2024/01/23 09:16:28;;;;;;;6.22;1.40;;;6.00;99.90;;;;;;5051884;28;20210;-85
2024/01/23 09:18:55;;;;;;;3.63;1.92;;;5.70;99.90;;;;;;5047694;28;20202;-85
2024/01/23 09:21:24;;;;;;;7.90;1.48;;;5.60;99.90;;;;;;5050679;28;20312;-84
2024/01/23 09:23:51;;;;;;;1.15;0.88;;;5.70;99.90;;;;;;5048353;28;20242;-79
2024/01/23 09:26:18;;;;;;;0.90;0.80;;;5.90;99.90;;;;;;5039068;28;20253;-77
2024/01/23 09:28:44;;;;;;;1.83;1.10;;;6.00;99.90;;;;;;5043232;28;20210;-81
2024/01/23 09:31:11;;;;;;;1.55;1.17;;;6.30;99.90;;;;;;5040191;28;20224;-81
2024/01/23 09:33:40;;;;;;;1.20;0.80;;;6.60;99.90;;;;;;5041639;28;20251;-81
2024/01/23 09:36:08;;;;;;;1.42;1.00;;;7.10;99.90;;;;;;5047438;28;20208;-79
2024/01/23 09:38:34;;;;;;;2.22;1.10;;;7.10;99.90;;;;;;5046421;28;20267;-79
2024/01/23 09:41:06;;;;;;;2.42;1.30;;;6.90;99.90;;;;;;5045500;28;20603;-79
2024/01/23 09:43:34;;;;;;;1.10;0.90;;;6.90;99.90;;;;;;5048204;28;20222;-78
2024/01/23 09:46:03;;;;;;;1.25;1.00;;;7.80;99.90;;;;;;5048867;28;20206;-80
2024/01/23 09:48:31;;;;;;;1.63;1.52;;;9.30;99.90;;;;;;5047286;28;20291;-80
2024/01/23 09:50:59;;;;;;;1.17;1.02;;;9.80;99.90;;;;;;5047021;28;20284;-80
2024/01/23 10:01:13;;;;;;;5.15;1.25;;;7.80;99.90;;;;;;1240036;26;20247;-83
2024/01/23 10:03:48;;;;;;;4.55;1.30;;;7.30;99.90;;;;;;5050468;28;20313;-82
2024/01/23 10:06:16;;;;;;;2.75;1.30;;;7.20;99.90;;;;;;5053680;28;20577;-80
2024/01/23 10:08:43;;;;;;;2.35;1.00;;;7.20;99.90;;;;;;5047432;28;20215;-81
2024/01/23 10:11:10;;;;;;;1.95;1.63;;;7.20;99.90;;;;;;5047646;28;20221;-80
2024/01/23 10:13:37;;;;;;;1.42;0.90;;;7.10;99.90;;;;;;5054575;28;20514;-80
2024/01/23 10:16:05;;;;;;;1.85;1.20;;;7.00;99.90;;;;;;5043043;28;20202;-79
2024/01/23 10:18:32;;;;;;;2.35;1.45;;;6.90;99.90;;;;;;5058087;28;20216;-80
2024/01/23 10:20:59;;;;;;;2.70;1.42;;;7.10;99.90;;;;;;5051927;28;20281;-80
2024/01/23 10:23:28;;;;;;;1.88;1.17;;;7.80;99.90;;;;;;5049302;28;20239;-84
2024/01/23 10:25:58;;;;;;;2.47;1.13;;;9.50;99.90;;;;;;5047471;28;20267;-84
2024/01/23 10:28:25;;;;;;;4.32;1.75;;;11.50;99.90;;;;;;5046396;28;20214;-86
2024/01/23 10:30:51;;;;;;;1.33;1.02;;;13.80;99.90;;;;;;5044539;28;20210;-85
2024/01/23 10:33:18;;;;;;;2.27;1.20;;;15.90;99.90;;;;;;5045257;28;20238;-88
2024/01/23 10:35:45;;;;;;;2.80;1.40;;;17.10;99.90;;;;;;5053914;28;20471;-79
2024/01/23 10:38:14;;;;;;;1.77;1.30;;;18.70;99.90;;;;;;5048435;28;20496;-78
2024/01/23 10:40:43;;;;;;;1.10;0.80;;;20.30;99.90;;;;;;5047175;28;20582;-81
2024/01/23 10:43:10;;;;;;;3.00;1.40;;;20.50;98.30;;;;;;5046508;28;20490;-77
2024/01/23 10:45:38;;;;;;;2.47;1.07;;;20.10;98.20;;;;;;5037500;28;20466;-75
2024/01/23 10:48:07;;;;;;;3.90;1.40;;;19.70;98.20;;;;;;5038376;28;21035;-75
2024/01/23 10:50:34;;;;;;;3.37;1.73;;;19.70;97.60;;;;;;5040149;28;20455;-75
2024/01/23 10:53:06;;;;;;;1.77;1.00;;;19.70;96.80;;;;;;5038114;28;20476;-76
2024/01/23 10:55:33;;;;;;;1.67;1.00;;;20.50;97.00;;;;;;5040283;28;20464;-80
2024/01/23 10:58:04;;;;;;;2.37;1.07;;;21.10;96.20;;;;;;5057660;28;20475;-84
2024/01/23 11:00:32;;;;;;;2.40;1.20;;;21.40;95.70;;;;;;5056692;28;20484;-83
2024/01/23 11:03:04;;;;;;;1.77;1.37;;;20.90;94.70;;;;;;5058142;28;20492;-83
2024/01/23 11:05:38;;;;;;;2.23;1.13;;;20.60;95.90;;;;;;5051901;28;20459;-84
2024/01/23 11:08:13;;;;;;;2.60;1.53;;;20.70;94.90;;;;;;5044211;28;20456;-81
2024/01/23 11:10:47;;;;;;;2.40;1.30;;;20.90;94.60;;;;;;5047566;28;20520;-83
2024/01/23 11:13:19;;;;;;;3.63;2.43;;;21.50;95.50;;;;;;5046386;28;21047;-82
2024/01/23 11:15:46;;;;;;;1.77;1.33;;;21.90;93.40;;;;;;5041473;28;20467;-82
2024/01/23 11:18:23;;;;;;;2.13;1.17;;;21.40;93.60;;;;;;5046132;28;20457;-82
2024/01/23 11:21:14;;;;;;;2.50;1.53;;;20.90;94.20;;;;;;5055277;28;20491;-85
2024/01/23 11:23:43;;;;;;;2.53;1.10;;;21.10;93.30;;;;;;5054060;28;20483;-82
2024/01/23 11:26:15;;;;;;;2.63;1.23;;;20.70;94.00;;;;;;5056670;28;20467;-83
2024/01/23 11:28:45;;;;;;;2.33;1.23;;;20.90;92.30;;;;;;5049307;28;20459;-83
2024/01/23 11:31:15;;;;;;;3.07;1.57;;;21.20;93.50;;;;;;5051575;28;20459;-85
2024/01/23 11:33:42;;;;;;;4.47;1.73;;;20.10;93.10;;;;;;5045765;28;20476;-83
2024/01/23 11:36:10;;;;;;;2.20;1.20;;;20.10;92.60;;;;;;5056885;28;20455;-83
2024/01/23 11:38:44;;;;;;;7.03;2.03;;;20.00;92.20;;;;;;5042837;28;20463;-84
2024/01/23 11:41:16;;;;;;;2.80;1.43;;;20.10;93.10;;;;;;5053317;28;20479;-84
2024/01/23 11:43:44;;;;;;;3.10;1.20;;;19.40;92.90;;;;;;5052462;28;21026;-84
2024/01/23 11:46:14;;;;;;;6.47;1.77;;;18.40;93.30;;;;;;5045195;28;20463;-84
2024/01/23 11:48:41;;;;;;;2.60;1.30;;;18.10;93.40;;;;;;5044531;28;20456;-84
2024/01/23 11:51:10;;;;;;;3.87;1.30;;;17.40;94.20;;;;;;5046683;28;20831;-85
2024/01/23 11:53:40;;;;;;;1.63;1.20;;;17.10;94.40;;;;;;5053388;28;20490;-84
2024/01/23 11:56:07;;;;;;;2.90;1.47;;;16.90;95.00;;;;;;5054126;28;20956;-84
2024/01/23 11:58:33;;;;;;;3.17;1.33;;;16.50;95.10;;;;;;5057267;28;20466;-84
2024/01/23 12:01:03;;;;;;;1.83;1.30;;;16.00;95.60;;;;;;5055618;28;20488;-84
2024/01/23 12:03:30;;;;;;;3.07;1.43;;;15.60;95.70;;;;;;5056062;28;20491;-85
2024/01/23 12:05:58;;;;;;;1.67;1.20;;;15.50;96.10;;;;;;5052606;28;20837;-84
2024/01/23 12:08:25;;;;;;;1.70;1.20;;;15.80;96.20;;;;;;5053183;28;21026;-84
2024/01/23 12:10:52;;;;;;;2.70;1.60;;;16.00;95.60;;;;;;5048639;28;20455;-84
2024/01/23 12:13:21;;;;;;;3.20;2.07;;;16.30;95.40;;;;;;5054290;28;20486;-84
2024/01/23 12:15:48;;;;;;;3.70;1.50;;;16.50;94.90;;;;;;5051068;28;20459;-84
2024/01/23 12:18:20;;;;;;;4.53;1.20;;;16.60;94.50;;;;;;5052986;28;20983;-83
2024/01/23 12:20:48;;;;;;;3.07;1.50;;;16.70;94.40;;;;;;5050576;28;20494;-84
2024/01/23 12:23:15;;;;;;;3.40;1.47;;;15.30;94.50;;;;;;5048861;28;20487;-84
2024/01/23 12:25:42;;;;;;;6.07;1.55;;;13.90;96.00;;;;;;5047482;28;20811;-86
2024/01/23 12:28:09;;;;;;;7.20;1.55;;;13.20;97.00;;;;;;5049305;28;20211;-84
2024/01/23 12:30:36;;;;;;;3.25;2.00;;;12.60;97.70;;;;;;5054982;28;20204;-83
2024/01/23 12:33:03;;;;;;;3.08;1.63;;;12.20;98.50;;;;;;5061161;28;20226;-83
2024/01/23 12:35:31;;;;;;;3.80;1.50;;;11.70;98.80;;;;;;5049110;28;20238;-84
2024/01/23 12:37:58;;;;;;;5.97;1.23;;;10.90;99.70;;;;;;5047272;28;20198;-83
2024/01/23 12:40:26;;;;;;;7.20;1.80;;;10.50;99.90;;;;;;5048931;28;20209;-84
2024/01/23 12:42:53;;;;;;;4.88;1.77;;;10.10;99.90;;;;;;5052449;28;20236;-84
2024/01/23 12:45:20;;;;;;;1.20;1.10;;;9.90;99.90;;;;;;5044894;28;20210;-85
2024/01/23 12:47:49;;;;;;;3.17;1.50;;;9.80;99.90;;;;;;5047146;28;20201;-84
2024/01/23 12:50:19;;;;;;;2.60;1.33;;;9.60;99.90;;;;;;5050369;28;20209;-86
2024/01/23 12:52:48;;;;;;;5.30;1.90;;;9.50;99.90;;;;;;5054146;28;20267;-85
2024/01/23 12:55:15;;;;;;;3.60;1.50;;;9.50;99.90;;;;;;5057411;28;20212;-85
2024/01/23 12:57:44;;;;;;;9.45;2.67;;;9.40;99.90;;;;;;5047479;28;20205;-84
2024/01/23 13:00:12;;;;;;;2.55;1.50;;;9.20;99.90;;;;;;5043763;28;20206;-82
2024/01/23 13:02:39;;;;;;;5.70;1.25;;;9.00;99.90;;;;;;5043075;28;20220;-84
2024/01/23 13:05:07;;;;;;;4.82;1.60;;;8.90;99.90;;;;;;5049229;28;20291;-85